Etusivu
METAR-TAF:

METAR-TAF

Lentoasemat :

Rostock, Saksa

Leveyspiiri: 53-55N, Pituuspiiri: 012-17E, korkeus merenpinnasta: 40 m

Tämänhetkinen sää

Tämä raportti tehtiin 25 minuuttia sitten, kello 10.20 UTC
Tuuli 8 kn idästä/koillisesta
Lämpötila 15°C
Kosteus 44%
Ilmanpaine 1032 hPa
Näkyvyys 10 km tai enemmän
Hajonneita pilviä 22000 ft:n korkeudessa
Hajanaisia pilviä 31000 ft:n korkeudessa

METAR: ETNL 201020Z 07008KT 9999 BKN220 SCT310 15/03 Q1032 BLU+

Aika: 12:45 (10:45 UTC)

Sääennuste

Tämä raportti tehtiin 44 minuuttia sitten, kello 10.01 UTC
Ennuste voimassa 20. päivästä klo 11 UTC - 20. päivään klo 23 UTC
Tuuli 8 kn koillisesta
Näkyvyys 10 km tai enemmän
Hajonneita pilviä 20000 ft:n korkeudessa

TAF: ETNL 201001Z 2011/2023 05008KT 9999 NSW BKN200 BY ETGL

Säähavainnot ja -ennusteet yli 4000 lentoasemalta (METAR- ja TAF-raportit).

Käytössä olevat sääasemat on merkitty karttaan keltaisilla ja punaisilla pisteillä.

Aseta hiiri pisteen päälle nähdäksesi sääaseman nimen.

Klikkaa sitten nähdäksesi säähavainnot ja -ennusteet.

Kartan vaihtaminen: klikkaa mustalla rastilla varustettuja vihreitä pisteitä, niin voit zoomata sisään; viivalla varustettua vihreää pistettä, niin voit zoomata ulos tai vihreitä nuolia, niin pääset viereisille kartoille.


METAR-TAF: